Time;durP1;ratioP1;P1;durP2;ratioP2;P2;SDS_P1;SDS_P2;PMS_P1;PMS_P2;Temp;Humidity;BMP_temperature;BMP_pressure;BME280_temperature;BME280_humidity;BME280_pressure;Samples;Min_cycle;Max_cycle;Signal;HPM_P1;HPM_P2
2021/06/16 00:00:10;;;;;;;2.70;2.27;;;19.40;1.00;;;;;;5009117;28;20248;-77
2021/06/16 00:02:38;;;;;;;5.57;2.60;;;19.30;88.30;;;;;;5007863;28;20328;-77
2021/06/16 00:05:10;;;;;;;5.57;2.37;;;19.30;1.00;;;;;;5001192;28;20235;-77
2021/06/16 00:07:37;;;;;;;7.37;2.67;;;19.30;1.00;;;;;;5011928;28;20223;-77
2021/06/16 00:10:06;;;;;;;5.60;2.60;;;19.10;99.90;;;;;;4990197;28;20212;-77
2021/06/16 00:12:34;;;;;;;2.87;2.20;;;19.20;99.90;;;;;;5003261;28;20201;-77
2021/06/16 00:15:04;;;;;;;6.87;3.03;;;19.20;99.90;;;;;;5005512;28;20199;-77
2021/06/16 00:17:31;;;;;;;5.80;2.60;;;19.20;1.00;;;;;;5007703;28;20198;-77
2021/06/16 00:19:58;;;;;;;4.73;2.43;;;19.20;99.90;;;;;;4992068;28;20657;-78
2021/06/16 00:22:25;;;;;;;7.53;2.40;;;19.30;1.00;;;;;;4991827;28;20635;-78
2021/06/16 00:24:52;;;;;;;5.97;2.90;;;19.20;1.00;;;;;;4991673;28;20324;-78
2021/06/16 00:27:19;;;;;;;6.07;2.73;;;19.00;99.90;;;;;;4988947;28;20234;-78
2021/06/16 00:29:46;;;;;;;5.73;2.40;;;19.10;1.00;;;;;;4999660;28;20203;-78
2021/06/16 00:32:12;;;;;;;3.43;2.60;;;19.00;1.00;;;;;;4996607;28;20290;-78
2021/06/16 00:34:39;;;;;;;5.10;2.63;;;19.10;1.00;;;;;;4984756;28;20234;-78
2021/06/16 00:37:06;;;;;;;5.00;2.50;;;19.10;1.00;;;;;;5018076;28;20560;-78
2021/06/16 00:39:33;;;;;;;7.30;2.67;;;19.10;1.00;;;;;;4997350;28;20277;-77
2021/06/16 00:42:01;;;;;;;5.30;2.50;;;19.20;15.00;;;;;;5013908;28;20516;-77
2021/06/16 00:44:27;;;;;;;6.33;2.87;;;19.10;1.00;;;;;;5014423;28;20226;-77
2021/06/16 00:46:54;;;;;;;7.23;2.63;;;19.10;99.90;;;;;;5016971;28;20199;-77
2021/06/16 00:49:21;;;;;;;4.83;2.47;;;19.10;1.00;;;;;;5025332;28;20570;-77
2021/06/16 00:51:48;;;;;;;5.90;2.67;;;19.00;1.00;;;;;;4998674;28;20279;-77
2021/06/16 00:54:15;;;;;;;4.13;2.77;;;18.90;1.00;;;;;;5013436;28;20597;-77
2021/06/16 00:56:42;;;;;;;8.17;4.20;;;19.00;99.90;;;;;;5026433;28;20301;-77
2021/06/16 00:59:10;;;;;;;9.00;3.30;;;19.00;1.00;;;;;;5014600;28;20337;-77
2021/06/16 01:01:46;;;;;;;6.80;3.40;;;19.00;99.90;;;;;;5022816;28;20610;-77
2021/06/16 01:04:22;;;;;;;5.33;3.53;;;18.90;1.00;;;;;;5023410;28;20303;-77
2021/06/16 01:06:56;;;;;;;5.93;3.30;;;19.00;22.30;;;;;;5016407;28;20268;-77
2021/06/16 01:09:29;;;;;;;7.07;3.90;;;18.90;1.00;;;;;;5015732;28;20224;-77
2021/06/16 01:12:25;;;;;;;6.43;3.57;;;18.90;99.90;;;;;;5029037;28;20270;-78
2021/06/16 01:14:53;;;;;;;7.33;3.97;;;18.90;99.90;;;;;;5011879;28;20239;-77
2021/06/16 01:17:24;;;;;;;7.97;3.60;;;18.90;99.90;;;;;;5014128;28;20198;-77
2021/06/16 01:20:01;;;;;;;3.47;3.03;;;18.90;99.90;;;;;;5028032;28;20906;-77
2021/06/16 01:22:43;;;;;;;4.73;2.80;;;18.90;99.90;;;;;;5028642;28;20206;-78
2021/06/16 01:25:21;;;;;;;4.50;2.73;;;18.90;1.00;;;;;;5032904;28;20201;-78
2021/06/16 01:27:49;;;;;;;5.73;2.80;;;19.00;1.00;;;;;;5014010;28;20279;-77
2021/06/16 01:30:16;;;;;;;5.97;2.63;;;18.90;99.90;;;;;;5011540;28;20627;-77
2021/06/16 01:32:44;;;;;;;5.80;2.80;;;18.90;99.90;;;;;;5028737;28;20243;-77
2021/06/16 01:35:11;;;;;;;3.37;2.67;;;18.80;1.00;;;;;;5029284;28;20232;-77
2021/06/16 01:37:38;;;;;;;7.10;2.97;;;18.70;1.00;;;;;;5015786;28;20202;-77
2021/06/16 01:40:06;;;;;;;4.20;2.90;;;18.80;1.00;;;;;;5026256;28;20228;-77
2021/06/16 01:42:33;;;;;;;4.67;2.80;;;18.80;1.00;;;;;;5004874;28;20248;-77
2021/06/16 01:45:01;;;;;;;5.47;2.67;;;18.80;1.00;;;;;;5013288;28;20226;-77
2021/06/16 01:47:29;;;;;;;6.63;2.80;;;18.80;1.00;;;;;;5024043;28;20560;-77
2021/06/16 01:49:59;;;;;;;5.20;2.87;;;18.80;1.00;;;;;;5000797;28;21012;-77
2021/06/16 01:52:27;;;;;;;5.07;2.67;;;18.70;1.00;;;;;;4997108;28;20249;-77
2021/06/16 01:54:55;;;;;;;3.77;2.50;;;18.60;1.00;;;;;;5015261;28;20764;-77
2021/06/16 01:57:26;;;;;;;6.00;2.93;;;18.70;99.90;;;;;;4996214;28;20679;-77
2021/06/16 01:59:56;;;;;;;9.47;2.93;;;18.70;15.00;;;;;;5023193;28;20235;-77
2021/06/16 02:02:23;;;;;;;3.57;2.40;;;18.70;99.90;;;;;;5015319;28;20690;-77
2021/06/16 02:04:50;;;;;;;6.17;2.83;;;18.70;1.00;;;;;;4994565;28;20199;-77
2021/06/16 02:07:22;;;;;;;4.13;2.80;;;18.60;1.00;;;;;;4993900;28;20280;-77
2021/06/16 02:09:51;;;;;;;4.53;3.27;;;18.70;1.00;;;;;;5013311;28;20199;-77
2021/06/16 02:12:20;;;;;;;7.07;3.07;;;18.60;1.00;;;;;;5012372;28;20651;-77
2021/06/16 02:15:04;;;;;;;4.37;3.00;;;18.60;1.00;;;;;;4996209;28;20204;-78
2021/06/16 02:17:32;;;;;;;6.43;3.10;;;18.60;99.90;;;;;;5012250;28;20707;-77
2021/06/16 02:19:59;;;;;;;9.40;3.80;;;18.60;99.90;;;;;;5001697;28;20206;-77
2021/06/16 02:22:26;;;;;;;5.07;3.20;;;18.50;1.00;;;;;;4991922;28;20588;-77
2021/06/16 02:24:54;;;;;;;5.10;3.20;;;18.50;1.00;;;;;;5009328;28;20242;-79
2021/06/16 02:27:22;;;;;;;6.37;3.23;;;18.40;99.90;;;;;;4997226;28;20811;-78
2021/06/16 02:29:49;;;;;;;9.50;3.37;;;18.30;1.00;;;;;;5010059;28;20198;-78
2021/06/16 02:32:17;;;;;;;6.77;3.60;;;18.40;99.90;;;;;;4998039;28;20642;-77
2021/06/16 02:34:44;;;;;;;10.50;3.70;;;18.30;99.90;;;;;;5006786;28;20290;-78
2021/06/16 02:37:15;;;;;;;9.13;3.50;;;18.40;1.00;;;;;;4998705;28;20213;-77
2021/06/16 02:39:44;;;;;;;8.57;3.30;;;18.40;99.90;;;;;;5022046;28;22144;-77
2021/06/16 02:42:12;;;;;;;6.20;2.90;;;18.40;1.00;;;;;;5012527;28;20229;-76
2021/06/16 02:44:47;;;;;;;3.73;2.93;;;18.40;1.00;;;;;;5010298;28;20211;-76
2021/06/16 02:47:15;;;;;;;5.47;3.13;;;18.40;1.00;;;;;;5013449;28;20201;-78
2021/06/16 02:49:54;;;;;;;8.43;3.93;;;18.30;1.00;;;;;;4999324;28;20229;-77
2021/06/16 02:52:23;;;;;;;8.03;3.50;;;18.30;1.00;;;;;;5026590;28;20666;-77
2021/06/16 02:54:56;;;;;;;4.07;3.27;;;18.30;1.00;;;;;;5020058;28;20282;-77
2021/06/16 02:57:25;;;;;;;8.33;3.97;;;18.30;99.90;;;;;;5017424;28;20574;-77
2021/06/16 02:59:53;;;;;;;3.90;3.07;;;18.30;99.90;;;;;;5009706;28;20250;-77
2021/06/16 03:02:24;;;;;;;6.17;3.03;;;18.30;1.00;;;;;;5011308;28;20598;-77
2021/06/16 03:04:52;;;;;;;6.60;3.27;;;18.30;1.00;;;;;;4998661;28;20208;-77
2021/06/16 03:07:21;;;;;;;7.33;3.67;;;18.30;99.90;;;;;;5003456;28;20263;-77
2021/06/16 03:09:48;;;;;;;8.80;3.97;;;18.30;1.00;;;;;;5009624;28;20735;-78
2021/06/16 03:12:17;;;;;;;5.70;3.60;;;18.20;1.00;;;;;;5011043;28;20255;-78
2021/06/16 03:14:47;;;;;;;4.90;2.80;;;18.20;1.00;;;;;;5020064;28;20692;-77
2021/06/16 03:17:16;;;;;;;7.80;3.87;;;18.20;1.00;;;;;;5017637;28;20232;-77
2021/06/16 03:19:44;;;;;;;5.73;3.50;;;18.20;55.50;;;;;;4984227;28;20213;-77
2021/06/16 03:22:12;;;;;;;4.20;3.70;;;18.10;1.00;;;;;;4993231;28;20904;-77
2021/06/16 03:24:43;;;;;;;7.50;3.57;;;18.10;99.90;;;;;;5010675;28;20209;-77
2021/06/16 03:27:11;;;;;;;6.93;3.50;;;18.00;1.00;;;;;;5008254;28;20272;-76
2021/06/16 03:29:38;;;;;;;8.53;3.50;;;18.10;1.00;;;;;;5007482;28;20224;-76
2021/06/16 03:32:08;;;;;;;5.43;3.50;;;18.00;99.90;;;;;;5010370;28;20227;-76
2021/06/16 03:34:36;;;;;;;5.47;3.70;;;18.00;1.00;;;;;;4999361;28;20254;-76
2021/06/16 03:37:07;;;;;;;7.10;3.63;;;18.10;1.00;;;;;;4995109;28;20232;-76
2021/06/16 03:39:35;;;;;;;5.70;3.50;;;18.10;1.00;;;;;;5007842;28;20231;-76
2021/06/16 03:42:04;;;;;;;5.23;3.47;;;18.10;1.00;;;;;;4996018;28;20197;-76
2021/06/16 03:44:32;;;;;;;8.47;4.13;;;18.10;1.00;;;;;;4994052;28;20203;-77
2021/06/16 03:47:00;;;;;;;12.93;3.90;;;18.00;99.90;;;;;;5013945;28;20295;-77
2021/06/16 03:49:29;;;;;;;5.03;4.00;;;17.90;1.00;;;;;;5032395;28;20255;-78
2021/06/16 03:51:58;;;;;;;5.43;4.00;;;18.00;1.00;;;;;;5013659;28;20232;-78
2021/06/16 03:54:26;;;;;;;8.87;4.07;;;18.00;1.00;;;;;;5013116;28;20212;-78
2021/06/16 03:56:53;;;;;;;9.17;3.80;;;18.00;1.00;;;;;;5011425;28;20202;-77
2021/06/16 03:59:21;;;;;;;6.43;4.40;;;17.90;99.90;;;;;;5008701;28;20216;-77
2021/06/16 04:01:48;;;;;;;6.57;3.73;;;17.90;61.70;;;;;;5014070;28;20276;-77
2021/06/16 04:04:15;;;;;;;5.07;3.93;;;17.90;1.00;;;;;;4995632;28;20200;-77
2021/06/16 04:06:43;;;;;;;5.77;3.90;;;17.90;1.00;;;;;;5015233;28;20212;-77
2021/06/16 04:09:12;;;;;;;8.47;4.47;;;17.90;99.90;;;;;;5041855;28;20206;-77
2021/06/16 04:11:41;;;;;;;6.50;4.13;;;17.90;1.00;;;;;;5014854;28;20251;-77
2021/06/16 04:14:08;;;;;;;6.43;5.00;;;17.90;1.00;;;;;;5015610;28;20292;-77
2021/06/16 04:16:35;;;;;;;5.90;3.97;;;17.70;1.00;;;;;;5016056;28;20212;-81
2021/06/16 04:19:05;;;;;;;8.60;4.30;;;17.80;99.90;;;;;;5014189;28;20230;-77
2021/06/16 04:21:31;;;;;;;7.63;4.13;;;17.90;1.00;;;;;;5018027;28;20259;-77
2021/06/16 04:23:58;;;;;;;6.67;3.80;;;17.90;1.00;;;;;;5014162;28;20263;-77
2021/06/16 04:26:25;;;;;;;6.23;4.37;;;17.90;1.00;;;;;;5011775;28;20317;-77
2021/06/16 04:28:52;;;;;;;6.10;3.80;;;18.00;1.00;;;;;;5017326;28;20212;-77
2021/06/16 04:31:19;;;;;;;9.57;4.70;;;17.90;1.00;;;;;;5031947;28;20229;-77
2021/06/16 04:33:46;;;;;;;5.87;3.97;;;18.00;1.00;;;;;;5014525;28;20201;-77
2021/06/16 04:36:13;;;;;;;7.87;4.33;;;17.90;1.00;;;;;;5007247;28;20348;-77
2021/06/16 04:38:40;;;;;;;6.97;4.10;;;18.00;1.00;;;;;;5016343;28;20641;-77
2021/06/16 04:41:07;;;;;;;9.23;4.33;;;18.10;1.00;;;;;;5003182;28;20264;-77
2021/06/16 04:43:34;;;;;;;6.90;4.53;;;18.00;1.00;;;;;;5012036;28;20343;-77
2021/06/16 04:46:00;;;;;;;5.93;4.10;;;18.00;99.90;;;;;;5000027;28;20210;-77
2021/06/16 04:48:27;;;;;;;9.47;4.13;;;18.10;1.00;;;;;;5011446;28;20194;-77
2021/06/16 04:50:54;;;;;;;8.37;4.50;;;18.20;1.00;;;;;;5011321;28;20197;-78
2021/06/16 04:53:21;;;;;;;6.27;4.47;;;18.20;1.00;;;;;;5010313;28;20207;-78
2021/06/16 04:55:48;;;;;;;8.27;5.00;;;18.30;1.00;;;;;;5005941;28;20210;-78
2021/06/16 04:58:16;;;;;;;8.63;4.20;;;18.20;1.00;;;;;;5004999;28;20206;-78
2021/06/16 05:00:43;;;;;;;7.87;4.80;;;18.30;1.00;;;;;;5004749;28;20216;-78
2021/06/16 05:03:09;;;;;;;13.40;4.57;;;18.40;1.00;;;;;;5009874;28;20219;-78
2021/06/16 05:05:37;;;;;;;6.33;4.27;;;18.40;99.90;;;;;;5013602;28;20232;-78
2021/06/16 05:08:04;;;;;;;4.90;4.40;;;18.40;1.00;;;;;;4999220;28;20719;-78
2021/06/16 05:10:30;;;;;;;6.27;4.60;;;18.50;1.00;;;;;;5013683;28;20275;-78
2021/06/16 05:12:57;;;;;;;7.90;4.80;;;18.50;15.30;;;;;;4994027;28;20224;-78
2021/06/16 05:15:24;;;;;;;7.33;5.00;;;18.60;99.90;;;;;;5032618;28;20255;-77
2021/06/16 05:17:51;;;;;;;5.97;4.87;;;18.70;1.00;;;;;;5017839;28;20271;-77
2021/06/16 05:20:18;;;;;;;9.37;5.30;;;18.80;1.00;;;;;;5008895;28;20254;-77
2021/06/16 05:22:48;;;;;;;8.70;4.87;;;18.90;1.00;;;;;;5017797;28;20268;-78
2021/06/16 05:25:17;;;;;;;7.37;4.93;;;19.10;1.00;;;;;;4989169;28;20196;-78
2021/06/16 05:27:44;;;;;;;7.20;5.00;;;19.10;1.00;;;;;;5002130;28;20194;-78
2021/06/16 05:30:11;;;;;;;8.30;4.87;;;19.20;99.90;;;;;;4989871;28;20208;-78
2021/06/16 05:32:39;;;;;;;8.20;5.50;;;19.30;1.00;;;;;;5008056;28;20325;-78
2021/06/16 05:35:07;;;;;;;10.27;5.30;;;19.50;99.90;;;;;;4994761;28;20292;-78
2021/06/16 05:37:34;;;;;;;13.10;5.23;;;19.60;1.00;;;;;;4995131;28;20359;-78
2021/06/16 05:40:01;;;;;;;11.50;5.17;;;19.80;1.00;;;;;;5001216;28;20255;-78
2021/06/16 05:42:28;;;;;;;10.83;4.90;;;19.80;1.00;;;;;;5008932;28;20226;-78
2021/06/16 05:44:55;;;;;;;8.13;4.60;;;19.90;99.90;;;;;;5010657;28;20556;-78
2021/06/16 05:47:22;;;;;;;9.20;4.80;;;20.00;1.00;;;;;;4992301;28;20242;-78
2021/06/16 05:49:49;;;;;;;8.10;4.83;;;20.10;1.00;;;;;;4996599;28;20206;-78
2021/06/16 05:52:16;;;;;;;11.20;5.13;;;20.20;1.00;;;;;;4991926;28;20198;-78
2021/06/16 05:54:42;;;;;;;9.93;5.30;;;20.20;1.00;;;;;;5002188;28;20307;-78
2021/06/16 05:57:09;;;;;;;11.73;5.10;;;20.20;1.00;;;;;;5013607;28;20902;-78
2021/06/16 05:59:41;;;;;;;9.83;5.27;;;20.30;99.90;;;;;;4978809;28;20232;-78
2021/06/16 06:02:08;;;;;;;7.07;4.70;;;20.30;1.00;;;;;;4983344;28;20193;-83
2021/06/16 06:04:35;;;;;;;12.15;5.95;;;20.30;1.00;;;;;;5000436;28;20466;-81
2021/06/16 06:07:03;;;;;;;10.23;5.00;;;20.20;1.00;;;;;;4998401;28;20256;-80
2021/06/16 06:09:30;;;;;;;5.37;4.77;;;20.40;1.00;;;;;;5014038;28;20236;-81
2021/06/16 06:11:58;;;;;;;9.23;5.13;;;20.70;99.90;;;;;;5010777;28;20209;-80
2021/06/16 06:14:25;;;;;;;8.57;4.60;;;21.00;1.00;;;;;;5030771;28;20201;-80
2021/06/16 06:16:52;;;;;;;6.77;4.77;;;21.20;14.90;;;;;;5001114;28;20907;-81
2021/06/16 06:19:19;;;;;;;7.13;4.60;;;21.90;99.90;;;;;;5016708;28;20225;-80
2021/06/16 06:21:46;;;;;;;6.93;5.03;;;22.30;53.00;;;;;;5013030;28;20264;-80
2021/06/16 06:24:13;;;;;;;8.33;4.77;;;22.30;1.00;;;;;;5017032;28;20213;-81
2021/06/16 06:26:39;;;;;;;6.10;3.50;;;22.40;1.00;;;;;;5016412;28;20213;-81
2021/06/16 06:29:06;;;;;;;7.63;5.67;;;22.90;99.90;;;;;;5010985;28;20280;-80
2021/06/16 06:31:33;;;;;;;13.70;4.90;;;22.60;99.90;;;;;;5023653;28;20535;-82
2021/06/16 06:34:00;;;;;;;7.40;5.13;;;22.40;1.00;;;;;;5017307;28;20203;-80
2021/06/16 06:36:31;;;;;;;6.13;4.53;;;22.30;1.00;;;;;;5009830;28;20259;-78
2021/06/16 06:38:58;;;;;;;8.53;5.00;;;22.20;1.00;;;;;;5014575;28;20205;-79
2021/06/16 06:41:25;;;;;;;11.17;4.80;;;22.40;1.00;;;;;;5022460;28;20283;-82
2021/06/16 06:43:52;;;;;;;6.43;4.77;;;22.90;99.90;;;;;;4998369;28;20206;-81
2021/06/16 06:46:19;;;;;;;5.57;4.50;;;22.60;99.90;;;;;;4991456;28;20205;-81
2021/06/16 06:48:46;;;;;;;10.97;5.50;;;22.90;99.90;;;;;;5032943;28;20262;-81
2021/06/16 06:51:13;;;;;;;5.77;4.77;;;22.90;99.90;;;;;;5015735;28;20727;-81
2021/06/16 06:53:39;;;;;;;7.80;4.80;;;23.20;99.90;;;;;;5001326;28;20275;-79
2021/06/16 06:56:06;;;;;;;8.40;4.93;;;23.50;99.90;;;;;;5011537;28;20205;-80
2021/06/16 06:58:34;;;;;;;10.23;4.63;;;24.10;1.00;;;;;;5015854;28;20201;-82
2021/06/16 07:01:01;;;;;;;6.13;4.23;;;24.10;1.00;;;;;;5016716;28;20221;-81
2021/06/16 07:03:28;;;;;;;5.80;4.43;;;24.30;1.00;;;;;;5015765;28;20200;-81
2021/06/16 07:05:55;;;;;;;10.87;4.60;;;24.30;1.00;;;;;;4996332;28;20232;-79
2021/06/16 07:08:22;;;;;;;10.77;4.57;;;24.70;1.00;;;;;;5005303;28;20225;-76
2021/06/16 07:10:49;;;;;;;6.57;3.80;;;24.80;99.90;;;;;;5004867;28;20292;-77
2021/06/16 07:13:16;;;;;;;5.23;4.50;;;25.10;99.90;;;;;;4995544;28;20270;-77
2021/06/16 07:16:03;;;;;;;5.50;3.90;;;25.00;99.90;;;;;;4997990;28;20564;-77
2021/06/16 07:18:30;;;;;;;9.03;4.50;;;25.30;99.90;;;;;;5011117;28;20201;-77
2021/06/16 07:20:57;;;;;;;4.90;3.70;;;25.10;99.90;;;;;;5008115;28;20213;-79
2021/06/16 07:23:24;;;;;;;8.00;4.20;;;25.50;99.90;;;;;;5009396;28;20217;-78
2021/06/16 07:25:51;;;;;;;9.50;4.47;;;25.40;99.90;;;;;;5010098;28;20232;-77
2021/06/16 07:28:18;;;;;;;10.03;3.57;;;25.80;99.90;;;;;;5010226;28;20241;-77
2021/06/16 07:30:44;;;;;;;10.77;4.23;;;26.00;99.90;;;;;;5015020;28;20197;-77
2021/06/16 07:33:12;;;;;;;9.20;3.60;;;25.70;99.90;;;;;;5015597;28;20262;-77
2021/06/16 07:35:39;;;;;;;8.00;3.13;;;25.70;99.90;;;;;;5014561;28;20256;-77
2021/06/16 07:38:06;;;;;;;10.50;3.80;;;26.20;99.90;;;;;;5013602;28;20229;-77
2021/06/16 07:40:33;;;;;;;7.60;3.60;;;26.40;99.90;;;;;;5010800;28;20212;-77
2021/06/16 07:43:00;;;;;;;3.37;2.50;;;26.60;99.90;;;;;;5026599;28;20639;-78
2021/06/16 07:45:27;;;;;;;4.47;3.20;;;26.70;99.90;;;;;;5038255;28;20195;-78
2021/06/16 07:47:54;;;;;;;7.20;2.60;;;26.90;99.90;;;;;;5035867;28;20226;-79
2021/06/16 07:50:21;;;;;;;8.03;2.70;;;27.10;99.90;;;;;;5001280;28;20280;-78
2021/06/16 07:52:48;;;;;;;7.07;2.60;;;27.50;99.90;;;;;;4999246;28;20676;-78
2021/06/16 07:55:15;;;;;;;6.75;2.67;;;27.50;99.90;;;;;;5014793;28;20268;-79
2021/06/16 07:57:42;;;;;;;3.50;2.70;;;27.90;99.90;;;;;;5014677;28;20251;-77
2021/06/16 08:00:09;;;;;;;4.57;1.63;;;27.90;99.90;;;;;;4990957;28;20216;-77
2021/06/16 08:02:38;;;;;;;5.67;2.10;;;28.20;99.90;;;;;;5013803;28;20531;-78
2021/06/16 08:05:07;;;;;;;5.37;2.07;;;28.40;99.90;;;;;;5011447;28;20601;-78
2021/06/16 08:07:34;;;;;;;5.13;2.43;;;28.10;99.90;;;;;;5032667;28;20295;-77
2021/06/16 08:10:01;;;;;;;3.33;2.00;;;27.70;99.90;;;;;;5015130;28;20208;-77
2021/06/16 08:12:28;;;;;;;4.60;2.40;;;28.30;99.90;;;;;;5015505;28;20676;-78
2021/06/16 08:14:55;;;;;;;3.80;2.23;;;27.80;98.90;;;;;;5009878;28;20219;-78
2021/06/16 08:17:22;;;;;;;3.20;1.57;;;27.70;97.50;;;;;;5015804;28;20625;-80
2021/06/16 08:19:49;;;;;;;2.33;1.60;;;28.40;99.90;;;;;;4998830;28;20200;-79
2021/06/16 08:22:18;;;;;;;6.17;2.17;;;29.10;93.30;;;;;;5001091;28;20644;-77
2021/06/16 08:24:45;;;;;;;4.93;2.13;;;29.10;84.50;;;;;;5013522;28;20570;-80
2021/06/16 08:27:13;;;;;;;3.67;2.03;;;28.80;86.90;;;;;;5003944;28;20219;-78
2021/06/16 08:29:40;;;;;;;3.60;2.10;;;29.00;89.20;;;;;;5015070;28;20489;-78
2021/06/16 08:32:07;;;;;;;4.33;2.30;;;28.40;76.40;;;;;;5004494;28;20240;-79
2021/06/16 08:34:36;;;;;;;4.40;2.10;;;28.60;81.00;;;;;;5034497;28;20204;-79
2021/06/16 08:37:06;;;;;;;2.70;1.97;;;28.90;82.90;;;;;;5030060;28;20221;-78
2021/06/16 08:39:38;;;;;;;2.35;1.90;;;29.10;75.10;;;;;;5011284;28;20255;-78
2021/06/16 08:42:09;;;;;;;3.27;1.50;;;29.30;66.20;;;;;;5008130;28;20221;-79
2021/06/16 08:44:37;;;;;;;4.57;2.40;;;29.40;68.20;;;;;;5028571;28;20292;-77
2021/06/16 08:47:05;;;;;;;6.70;2.00;;;29.60;67.70;;;;;;5017254;28;20220;-78
2021/06/16 08:49:33;;;;;;;2.85;1.80;;;30.20;62.20;;;;;;5001379;28;20203;-79
2021/06/16 08:52:01;;;;;;;2.20;1.95;;;30.00;57.10;;;;;;5033130;28;20588;-78
2021/06/16 08:54:29;;;;;;;5.13;1.73;;;29.70;55.90;;;;;;5016369;28;20663;-79
2021/06/16 08:56:57;;;;;;;2.55;1.90;;;30.60;90.30;;;;;;5019423;28;20283;-78
2021/06/16 08:59:27;;;;;;;4.25;1.70;;;29.90;54.20;;;;;;5015378;28;20274;-78
2021/06/16 09:01:53;;;;;;;5.28;2.08;;;29.70;52.40;;;;;;5017320;28;20291;-79
2021/06/16 09:04:49;;;;;;;3.78;1.60;;;29.90;50.50;;;;;;5014791;28;20572;-77
2021/06/16 09:07:17;;;;;;;2.53;1.70;;;31.00;55.70;;;;;;5028145;28;20200;-78
2021/06/16 09:09:46;;;;;;;3.63;1.77;;;31.20;53.10;;;;;;5015332;28;20612;-79
2021/06/16 09:12:18;;;;;;;2.65;1.65;;;31.10;47.80;;;;;;5030834;28;20213;-78
2021/06/16 09:14:52;;;;;;;4.18;1.88;;;30.80;46.60;;;;;;5020001;28;20243;-78
2021/06/16 09:17:22;;;;;;;5.18;2.05;;;30.40;47.80;;;;;;5031906;28;20225;-78
2021/06/16 09:19:58;;;;;;;5.03;2.05;;;30.20;45.90;;;;;;5013257;28;20208;-79
2021/06/16 09:22:28;;;;;;;3.88;2.25;;;30.30;46.60;;;;;;5027201;28;20281;-78
2021/06/16 09:24:57;;;;;;;1.98;1.67;;;30.50;48.00;;;;;;5025955;28;20197;-77
2021/06/16 09:27:47;;;;;;;2.08;1.88;;;30.50;49.00;;;;;;5031773;28;20698;-77
2021/06/16 09:30:21;;;;;;;3.47;2.00;;;30.80;45.20;;;;;;5010734;28;20703;-77
2021/06/16 09:32:56;;;;;;;2.65;2.08;;;30.60;43.70;;;;;;5030083;28;20224;-77
2021/06/16 09:35:25;;;;;;;4.03;2.08;;;30.80;42.70;;;;;;5012411;28;20650;-77
2021/06/16 09:37:52;;;;;;;3.00;1.93;;;29.90;48.60;;;;;;5010600;28;20201;-78
2021/06/16 09:40:33;;;;;;;4.55;1.88;;;30.30;51.10;;;;;;5032883;28;20221;-78
2021/06/16 09:43:14;;;;;;;3.33;2.20;;;30.30;49.50;;;;;;5016657;28;20578;-77
2021/06/16 09:45:44;;;;;;;5.47;2.70;;;30.30;42.10;;;;;;5036068;28;20279;-78
2021/06/16 09:48:22;;;;;;;5.93;2.00;;;30.00;41.60;;;;;;5003024;28;20220;-78
2021/06/16 09:51:07;;;;;;;4.77;2.20;;;30.70;47.40;;;;;;5008347;28;20275;-78
2021/06/16 09:53:55;;;;;;;3.63;2.27;;;30.80;44.80;;;;;;5029621;28;20224;-78
2021/06/16 09:56:23;;;;;;;2.80;1.70;;;30.40;41.80;;;;;;5023088;28;20205;-78
2021/06/16 09:58:52;;;;;;;4.17;2.47;;;30.00;51.40;;;;;;5019885;28;20581;-78
2021/06/16 10:01:40;;;;;;;2.50;2.10;;;29.90;50.90;;;;;;4999443;28;20244;-78
2021/06/16 10:04:07;;;;;;;3.45;2.38;;;29.60;49.80;;;;;;5019802;28;20197;-78
2021/06/16 10:06:34;;;;;;;6.23;2.53;;;29.20;55.70;;;;;;5020798;28;20283;-80
2021/06/16 10:09:07;;;;;;;3.65;2.47;;;29.80;62.50;;;;;;5012582;28;20553;-78
2021/06/16 10:11:35;;;;;;;3.90;2.90;;;29.70;58.30;;;;;;5001329;28;20197;-78
2021/06/16 10:14:02;;;;;;;3.05;2.75;;;29.40;62.90;;;;;;4995049;28;20340;-78
2021/06/16 10:16:29;;;;;;;5.05;2.35;;;29.50;66.80;;;;;;4997023;28;20201;-78
2021/06/16 10:18:56;;;;;;;4.38;2.65;;;30.30;61.40;;;;;;5001139;28;20535;-79
2021/06/16 10:21:23;;;;;;;5.05;3.53;;;30.30;55.60;;;;;;5013452;28;20227;-79
2021/06/16 10:23:50;;;;;;;8.32;3.17;;;29.90;55.00;;;;;;5012141;28;20247;-79
2021/06/16 10:26:28;;;;;;;3.70;2.67;;;30.00;58.20;;;;;;4983307;28;20224;-79
2021/06/16 10:29:11;;;;;;;3.78;2.55;;;30.50;60.00;;;;;;5035477;28;20227;-79
2021/06/16 10:31:40;;;;;;;8.13;3.28;;;30.60;62.00;;;;;;5010915;28;20270;-79
2021/06/16 10:34:08;;;;;;;4.32;2.80;;;30.00;63.50;;;;;;5030120;28;20228;-79
2021/06/16 10:36:36;;;;;;;3.72;2.05;;;30.20;59.40;;;;;;5025783;28;20245;-79
2021/06/16 10:39:06;;;;;;;7.43;3.25;;;30.50;67.50;;;;;;4999472;28;20568;-79
2021/06/16 10:41:45;;;;;;;4.10;2.78;;;30.10;66.20;;;;;;5019188;28;20296;-79
2021/06/16 10:44:14;;;;;;;3.83;3.13;;;30.00;67.20;;;;;;5034491;28;20200;-80
2021/06/16 10:46:56;;;;;;;6.60;3.13;;;30.20;61.10;;;;;;5019453;28;20854;-79
2021/06/16 10:49:50;;;;;;;4.90;3.10;;;30.40;57.90;;;;;;5017780;28;20259;-79
2021/06/16 10:52:21;;;;;;;4.55;3.20;;;29.90;62.00;;;;;;5024217;28;20200;-79
2021/06/16 10:55:03;;;;;;;4.45;3.08;;;30.10;61.70;;;;;;4995827;28;20217;-79
2021/06/16 10:57:30;;;;;;;4.90;3.25;;;30.40;66.20;;;;;;5011488;28;20239;-79
2021/06/16 11:00:02;;;;;;;4.93;3.55;;;30.50;71.90;;;;;;5005205;28;20208;-77
2021/06/16 11:02:31;;;;;;;4.07;3.25;;;30.30;63.60;;;;;;5016395;28;20220;-79
2021/06/16 11:05:20;;;;;;;3.78;2.50;;;30.20;64.00;;;;;;5015059;28;20203;-79
2021/06/16 11:07:47;;;;;;;3.87;2.47;;;31.10;63.70;;;;;;5012496;28;20196;-79
2021/06/16 11:10:14;;;;;;;3.60;2.90;;;32.40;63.20;;;;;;5011781;28;20598;-79
2021/06/16 11:12:46;;;;;;;6.70;3.70;;;32.10;56.40;;;;;;5012163;28;20204;-79
2021/06/16 11:15:26;;;;;;;5.55;2.75;;;31.60;50.30;;;;;;5023187;28;20203;-79
2021/06/16 11:17:59;;;;;;;3.75;3.33;;;31.30;59.10;;;;;;5006528;28;20227;-79
2021/06/16 11:20:28;;;;;;;6.63;3.38;;;31.20;52.20;;;;;;5028304;28;20283;-78
2021/06/16 11:22:59;;;;;;;4.07;3.40;;;31.00;88.50;;;;;;5029765;28;20546;-78
2021/06/16 11:25:35;;;;;;;5.00;3.35;;;31.00;54.90;;;;;;5012255;28;20940;-78
2021/06/16 11:28:11;;;;;;;3.75;2.80;;;31.30;56.30;;;;;;5010375;28;20196;-78
2021/06/16 11:30:42;;;;;;;3.92;3.60;;;31.70;64.10;;;;;;5015260;28;20648;-79
2021/06/16 11:33:13;;;;;;;4.47;3.42;;;31.10;52.20;;;;;;5013305;28;20209;-78
2021/06/16 11:35:41;;;;;;;5.77;3.93;;;31.10;61.50;;;;;;5008640;28;20543;-78
2021/06/16 11:38:10;;;;;;;3.85;3.53;;;30.70;57.40;;;;;;5006783;28;20786;-78
2021/06/16 11:40:37;;;;;;;4.30;3.50;;;30.50;54.10;;;;;;4987953;28;20704;-78
2021/06/16 11:43:04;;;;;;;5.60;4.20;;;30.80;66.60;;;;;;5006539;28;20281;-78
2021/06/16 11:45:32;;;;;;;5.22;3.70;;;30.90;62.00;;;;;;5008311;28;20201;-78
2021/06/16 11:48:00;;;;;;;8.40;3.92;;;31.00;63.10;;;;;;5011507;28;20224;-78
2021/06/16 11:50:34;;;;;;;7.60;4.07;;;30.90;91.40;;;;;;5007561;28;20232;-78
2021/06/16 11:53:03;;;;;;;5.72;4.57;;;31.00;60.10;;;;;;5013469;28;20335;-79
2021/06/16 11:55:44;;;;;;;5.15;4.30;;;31.30;65.20;;;;;;5025616;28;20263;-79
2021/06/16 11:58:29;;;;;;;4.47;3.80;;;31.20;56.50;;;;;;5020253;28;20209;-78
2021/06/16 12:01:07;;;;;;;4.57;3.58;;;31.30;63.80;;;;;;5005434;28;20214;-79
2021/06/16 12:03:36;;;;;;;5.90;3.33;;;31.90;70.80;;;;;;5007090;28;20272;-80
2021/06/16 12:06:11;;;;;;;6.10;3.92;;;32.30;65.70;;;;;;5007482;28;20243;-79
2021/06/16 12:08:40;;;;;;;7.30;4.18;;;31.60;61.90;;;;;;5010794;28;20240;-79
2021/06/16 12:11:25;;;;;;;5.70;4.95;;;31.30;56.90;;;;;;5009476;28;20233;-79
2021/06/16 12:14:09;;;;;;;7.43;4.40;;;31.20;56.90;;;;;;5008756;28;20281;-79
2021/06/16 12:16:40;;;;;;;5.20;4.20;;;31.20;62.80;;;;;;5010036;28;20201;-79
2021/06/16 12:19:12;;;;;;;7.65;4.57;;;31.30;64.20;;;;;;5010184;28;20217;-78
2021/06/16 12:21:48;;;;;;;6.30;4.10;;;31.50;68.20;;;;;;5008990;28;20271;-75
2021/06/16 12:24:18;;;;;;;6.72;4.40;;;32.20;73.70;;;;;;5000600;28;20346;-77
2021/06/16 12:27:03;;;;;;;5.00;4.07;;;32.00;68.50;;;;;;5014791;28;20236;-78
2021/06/16 12:29:33;;;;;;;10.13;4.70;;;31.50;97.10;;;;;;5012216;28;20197;-78
2021/06/16 12:32:03;;;;;;;8.90;5.25;;;30.80;82.10;;;;;;5010980;28;20261;-77
2021/06/16 12:37:16;;;;;;;5.28;4.57;;;30.70;84.90;;;;;;5012235;28;20200;-77
2021/06/16 12:39:55;;;;;;;6.38;5.70;;;31.00;78.60;;;;;;5011783;28;20229;-77
2021/06/16 12:42:33;;;;;;;5.75;4.35;;;30.60;79.00;;;;;;5016771;28;20239;-77
2021/06/16 12:45:01;;;;;;;5.35;4.65;;;30.80;84.00;;;;;;5011709;28;20618;-77
2021/06/16 12:47:32;;;;;;;6.38;4.47;;;30.60;91.80;;;;;;5000083;28;20291;-77
2021/06/16 12:49:59;;;;;;;6.53;5.05;;;31.20;91.70;;;;;;5030366;28;20250;-77
2021/06/16 12:52:33;;;;;;;10.10;5.50;;;31.00;88.50;;;;;;5012383;28;20727;-77
2021/06/16 12:55:16;;;;;;;8.07;4.85;;;31.00;89.90;;;;;;5032172;28;20199;-76
2021/06/16 12:57:48;;;;;;;9.20;6.22;;;32.20;91.10;;;;;;4997914;28;20208;-76
2021/06/16 13:00:19;;;;;;;6.90;5.28;;;32.10;73.30;;;;;;5029507;28;20237;-76
2021/06/16 13:02:46;;;;;;;9.48;5.85;;;31.30;90.80;;;;;;5012343;28;20266;-77
2021/06/16 13:05:15;;;;;;;10.02;6.30;;;31.40;91.70;;;;;;5011944;28;20224;-76